sensor_id;sensor_type;location;lat;lon;timestamp;pressure;altitude;pressure_sealevel;temperature;humidity
42633;BME280;28261;53.304;-6.284;2023-06-24T00:01:05;101304.22;;;18.72;96.31
42633;BME280;28261;53.304;-6.284;2023-06-24T00:03:09;101298.00;;;18.72;96.52
42633;BME280;28261;53.304;-6.284;2023-06-24T00:05:14;101295.31;;;18.72;96.32
42633;BME280;28261;53.304;-6.284;2023-06-24T00:07:19;101295.47;;;18.70;96.26
42633;BME280;28261;53.304;-6.284;2023-06-24T00:09:26;101307.19;;;18.69;96.24
42633;BME280;28261;53.304;-6.284;2023-06-24T00:11:30;101310.03;;;18.68;96.16
42633;BME280;28261;53.304;-6.284;2023-06-24T00:13:34;101308.31;;;18.67;96.23
42633;BME280;28261;53.304;-6.284;2023-06-24T00:15:39;101311.28;;;18.64;96.49
42633;BME280;28261;53.304;-6.284;2023-06-24T00:17:45;101310.72;;;18.60;97.00
42633;BME280;28261;53.304;-6.284;2023-06-24T00:19:49;101319.66;;;18.60;97.07
42633;BME280;28261;53.304;-6.284;2023-06-24T00:21:57;101315.25;;;18.59;96.91
42633;BME280;28261;53.304;-6.284;2023-06-24T00:24:03;101314.41;;;18.59;96.75
42633;BME280;28261;53.304;-6.284;2023-06-24T00:26:09;101316.97;;;18.60;96.61
42633;BME280;28261;53.304;-6.284;2023-06-24T00:28:13;101317.09;;;18.59;96.47
42633;BME280;28261;53.304;-6.284;2023-06-24T00:30:17;101319.78;;;18.59;96.40
42633;BME280;28261;53.304;-6.284;2023-06-24T00:32:21;101325.28;;;18.57;96.40
42633;BME280;28261;53.304;-6.284;2023-06-24T00:34:25;101321.75;;;18.57;95.93
42633;BME280;28261;53.304;-6.284;2023-06-24T00:36:29;101333.31;;;18.57;96.18
42633;BME280;28261;53.304;-6.284;2023-06-24T00:38:34;101321.59;;;18.58;96.01
42633;BME280;28261;53.304;-6.284;2023-06-24T00:40:38;101328.69;;;18.59;95.67
42633;BME280;28261;53.304;-6.284;2023-06-24T00:42:45;101329.66;;;18.58;95.65
42633;BME280;28261;53.304;-6.284;2023-06-24T00:44:50;101322.59;;;18.57;95.47
42633;BME280;28261;53.304;-6.284;2023-06-24T00:46:55;101322.59;;;18.57;95.55
42633;BME280;28261;53.304;-6.284;2023-06-24T00:48:59;101332.50;;;18.57;95.33
42633;BME280;28261;53.304;-6.284;2023-06-24T00:51:05;101331.66;;;18.56;95.33
42633;BME280;28261;53.304;-6.284;2023-06-24T00:53:09;101331.50;;;18.58;95.45
42633;BME280;28261;53.304;-6.284;2023-06-24T00:55:15;101327.13;;;18.57;94.95
42633;BME280;28261;53.304;-6.284;2023-06-24T00:57:21;101322.59;;;18.57;95.08
42633;BME280;28261;53.304;-6.284;2023-06-24T00:59:28;101331.66;;;18.56;94.86
42633;BME280;28261;53.304;-6.284;2023-06-24T01:01:35;101325.41;;;18.56;95.15
42633;BME280;28261;53.304;-6.284;2023-06-24T01:03:39;101335.31;;;18.55;94.92
42633;BME280;28261;53.304;-6.284;2023-06-24T01:05:44;101333.63;;;18.54;94.78
42633;BME280;28261;53.304;-6.284;2023-06-24T01:07:49;101332.06;;;18.52;94.91
42633;BME280;28261;53.304;-6.284;2023-06-24T01:09:58;101345.47;;;18.52;95.14
42633;BME280;28261;53.304;-6.284;2023-06-24T01:12:03;101341.97;;;18.51;94.62
42633;BME280;28261;53.304;-6.284;2023-06-24T01:14:07;101337.56;;;18.50;94.70
42633;BME280;28261;53.304;-6.284;2023-06-24T01:16:18;101327.81;;;18.49;94.43
42633;BME280;28261;53.304;-6.284;2023-06-24T01:18:31;101334.88;;;18.50;94.56
42633;BME280;28261;53.304;-6.284;2023-06-24T01:20:40;101333.91;;;18.51;94.33
42633;BME280;28261;53.304;-6.284;2023-06-24T01:23:06;101339.28;;;18.51;94.44
42633;BME280;28261;53.304;-6.284;2023-06-24T01:25:30;101348.03;;;18.53;94.26
42633;BME280;28261;53.304;-6.284;2023-06-24T01:27:52;101345.34;;;18.53;94.11
42633;BME280;28261;53.304;-6.284;2023-06-24T01:30:31;101342.66;;;18.53;94.02
42633;BME280;28261;53.304;-6.284;2023-06-24T01:32:49;101339.97;;;18.53;93.72
42633;BME280;28261;53.304;-6.284;2023-06-24T01:34:57;101337.28;;;18.53;93.92
42633;BME280;28261;53.304;-6.284;2023-06-24T01:37:09;101334.34;;;18.56;93.78
42633;BME280;28261;53.304;-6.284;2023-06-24T01:39:17;101330.78;;;18.56;93.66
42633;BME280;28261;53.304;-6.284;2023-06-24T01:41:24;101324.56;;;18.55;93.53
42633;BME280;28261;53.304;-6.284;2023-06-24T01:43:32;101328.97;;;18.56;93.30
42633;BME280;28261;53.304;-6.284;2023-06-24T01:45:41;101337.28;;;18.53;93.50
42633;BME280;28261;53.304;-6.284;2023-06-24T01:47:48;101329.38;;;18.52;93.55
42633;BME280;28261;53.304;-6.284;2023-06-24T01:49:58;101336.88;;;18.48;94.01
42633;BME280;28261;53.304;-6.284;2023-06-24T01:52:07;101334.19;;;18.48;93.95
42633;BME280;28261;53.304;-6.284;2023-06-24T01:54:15;101329.94;;;18.46;94.25
42633;BME280;28261;53.304;-6.284;2023-06-24T01:56:23;101321.91;;;18.46;94.27
42633;BME280;28261;53.304;-6.284;2023-06-24T01:58:31;101336.16;;;18.46;94.07
42633;BME280;28261;53.304;-6.284;2023-06-24T02:00:37;101333.47;;;18.46;94.33
42633;BME280;28261;53.304;-6.284;2023-06-24T02:02:43;101330.78;;;18.46;94.19
42633;BME280;28261;53.304;-6.284;2023-06-24T02:04:51;101319.22;;;18.46;94.04
42633;BME280;28261;53.304;-6.284;2023-06-24T02:07:00;101315.81;;;18.43;94.32
42633;BME280;28261;53.304;-6.284;2023-06-24T02:09:05;101318.47;;;18.43;94.46
42633;BME280;28261;53.304;-6.284;2023-06-24T02:11:12;101318.47;;;18.43;94.33
42633;BME280;28261;53.304;-6.284;2023-06-24T02:13:18;101318.34;;;18.45;94.82
42633;BME280;28261;53.304;-6.284;2023-06-24T02:15:23;101317.50;;;18.44;94.96
42633;BME280;28261;53.304;-6.284;2023-06-24T02:17:28;101316.66;;;18.44;95.38
42633;BME280;28261;53.304;-6.284;2023-06-24T02:19:33;101317.50;;;18.44;95.50
42633;BME280;28261;53.304;-6.284;2023-06-24T02:21:39;101315.94;;;18.42;95.62
42633;BME280;28261;53.304;-6.284;2023-06-24T02:23:46;101314.38;;;18.39;95.93
42633;BME280;28261;53.304;-6.284;2023-06-24T02:25:50;101324.28;;;18.39;96.11
42633;BME280;28261;53.304;-6.284;2023-06-24T02:27:55;101325.13;;;18.39;96.09
42633;BME280;28261;53.304;-6.284;2023-06-24T02:30:00;101328.69;;;18.40;96.15
42633;BME280;28261;53.304;-6.284;2023-06-24T02:32:05;101323.16;;;18.41;96.18
42633;BME280;28261;53.304;-6.284;2023-06-24T02:34:09;101327.81;;;18.39;96.63
42633;BME280;28261;53.304;-6.284;2023-06-24T02:36:13;101321.59;;;18.39;96.73
42633;BME280;28261;53.304;-6.284;2023-06-24T02:38:19;101309.88;;;18.40;96.90
42633;BME280;28261;53.304;-6.284;2023-06-24T02:40:23;101315.94;;;18.42;96.81
42633;BME280;28261;53.304;-6.284;2023-06-24T02:42:27;101317.50;;;18.44;97.05
42633;BME280;28261;53.304;-6.284;2023-06-24T02:44:32;101307.59;;;18.45;97.18
42633;BME280;28261;53.304;-6.284;2023-06-24T02:46:36;101305.78;;;18.46;97.69
42633;BME280;28261;53.304;-6.284;2023-06-24T02:48:41;101314.97;;;18.43;97.37
42633;BME280;28261;53.304;-6.284;2023-06-24T02:50:46;101323.03;;;18.43;97.81
42633;BME280;28261;53.304;-6.284;2023-06-24T02:52:51;101318.34;;;18.45;97.67
42633;BME280;28261;53.304;-6.284;2023-06-24T02:55:04;101320.03;;;18.46;97.65
42633;BME280;28261;53.304;-6.284;2023-06-24T02:57:25;101315.25;;;18.50;97.59
42633;BME280;28261;53.304;-6.284;2023-06-24T02:59:49;101315.81;;;18.53;97.70
42633;BME280;28261;53.304;-6.284;2023-06-24T03:02:03;101306.75;;;18.54;97.58
42633;BME280;28261;53.304;-6.284;2023-06-24T03:04:08;101304.81;;;18.56;97.79
42633;BME280;28261;53.304;-6.284;2023-06-24T03:06:12;101311.84;;;18.57;97.97
42633;BME280;28261;53.304;-6.284;2023-06-24T03:08:20;101305.50;;;18.58;97.99
42633;BME280;28261;53.304;-6.284;2023-06-24T03:10:27;101316.09;;;18.60;97.97
42633;BME280;28261;53.304;-6.284;2023-06-24T03:12:32;101314.97;;;18.63;97.62
42633;BME280;28261;53.304;-6.284;2023-06-24T03:14:36;101319.22;;;18.65;97.85
42633;BME280;28261;53.304;-6.284;2023-06-24T03:16:41;101311.97;;;18.66;97.98
42633;BME280;28261;53.304;-6.284;2023-06-24T03:18:48;101321.59;;;18.68;98.43
42633;BME280;28261;53.304;-6.284;2023-06-24T03:20:52;101315.09;;;18.71;98.33
42633;BME280;28261;53.304;-6.284;2023-06-24T03:23:00;101313.97;;;18.73;98.61
42633;BME280;28261;53.304;-6.284;2023-06-24T03:25:05;101319.91;;;18.77;98.56
42633;BME280;28261;53.304;-6.284;2023-06-24T03:27:11;101320.63;;;18.79;98.79
42633;BME280;28261;53.304;-6.284;2023-06-24T03:29:17;101326.69;;;18.81;98.80
42633;BME280;28261;53.304;-6.284;2023-06-24T03:31:30;101310.59;;;18.81;99.09
42633;BME280;28261;53.304;-6.284;2023-06-24T03:33:34;101316.78;;;18.82;98.94
42633;BME280;28261;53.304;-6.284;2023-06-24T03:35:39;101307.91;;;18.81;98.78
42633;BME280;28261;53.304;-6.284;2023-06-24T03:37:46;101305.22;;;18.81;98.85
42633;BME280;28261;53.304;-6.284;2023-06-24T03:39:49;101301.66;;;18.81;98.89
42633;BME280;28261;53.304;-6.284;2023-06-24T03:41:54;101313.41;;;18.80;98.81
42633;BME280;28261;53.304;-6.284;2023-06-24T03:44:00;101317.09;;;18.78;99.11
42633;BME280;28261;53.304;-6.284;2023-06-24T03:46:04;101312.69;;;18.77;99.03
42633;BME280;28261;53.304;-6.284;2023-06-24T03:48:08;101318.22;;;18.76;99.19
42633;BME280;28261;53.304;-6.284;2023-06-24T03:50:12;101322.03;;;18.73;99.39
42633;BME280;28261;53.304;-6.284;2023-06-24T03:52:16;101324.03;;;18.71;100.00
42633;BME280;28261;53.304;-6.284;2023-06-24T03:54:20;101318.78;;;18.70;99.24
42633;BME280;28261;53.304;-6.284;2023-06-24T03:56:23;101338.59;;;18.69;99.20
42633;BME280;28261;53.304;-6.284;2023-06-24T03:58:27;101337.56;;;18.70;99.33
42633;BME280;28261;53.304;-6.284;2023-06-24T04:00:32;101333.91;;;18.71;99.46
42633;BME280;28261;53.304;-6.284;2023-06-24T04:02:35;101328.38;;;18.72;99.52
42633;BME280;28261;53.304;-6.284;2023-06-24T04:04:39;101335.47;;;18.73;99.66
42633;BME280;28261;53.304;-6.284;2023-06-24T04:06:42;101323.88;;;18.73;99.66
42633;BME280;28261;53.304;-6.284;2023-06-24T04:08:48;101336.28;;;18.74;99.78
42633;BME280;28261;53.304;-6.284;2023-06-24T04:10:53;101334.34;;;18.76;99.86
42633;BME280;28261;53.304;-6.284;2023-06-24T04:12:57;101337.72;;;18.78;99.90
42633;BME280;28261;53.304;-6.284;2023-06-24T04:15:01;101325.00;;;18.80;99.77
42633;BME280;28261;53.304;-6.284;2023-06-24T04:17:09;101324.84;;;18.82;99.71
42633;BME280;28261;53.304;-6.284;2023-06-24T04:19:12;101328.13;;;18.85;99.65
42633;BME280;28261;53.304;-6.284;2023-06-24T04:21:16;101336.19;;;18.85;99.50
42633;BME280;28261;53.304;-6.284;2023-06-24T04:23:20;101331.63;;;18.86;99.62
42633;BME280;28261;53.304;-6.284;2023-06-24T04:25:24;101342.13;;;18.89;99.74
42633;BME280;28261;53.304;-6.284;2023-06-24T04:27:27;101336.63;;;18.90;99.62
42633;BME280;28261;53.304;-6.284;2023-06-24T04:29:30;101339.31;;;18.90;99.69
42633;BME280;28261;53.304;-6.284;2023-06-24T04:31:34;101349.91;;;18.92;99.95
42633;BME280;28261;53.304;-6.284;2023-06-24T04:33:39;101354.28;;;18.93;99.88
42633;BME280;28261;53.304;-6.284;2023-06-24T04:35:42;101346.78;;;18.97;99.81
42633;BME280;28261;53.304;-6.284;2023-06-24T04:37:46;101351.19;;;18.98;99.81
42633;BME280;28261;53.304;-6.284;2023-06-24T04:39:51;101350.88;;;19.01;99.94
42633;BME280;28261;53.304;-6.284;2023-06-24T04:41:55;101347.22;;;19.02;99.78
42633;BME280;28261;53.304;-6.284;2023-06-24T04:43:58;101350.59;;;19.04;99.94
42633;BME280;28261;53.304;-6.284;2023-06-24T04:46:01;101351.59;;;19.03;100.00
42633;BME280;28261;53.304;-6.284;2023-06-24T04:48:05;101355.13;;;19.03;100.00
42633;BME280;28261;53.304;-6.284;2023-06-24T04:50:10;101348.78;;;19.04;100.00
42633;BME280;28261;53.304;-6.284;2023-06-24T04:52:14;101354.00;;;19.06;100.00
42633;BME280;28261;53.304;-6.284;2023-06-24T04:54:17;101348.63;;;19.06;100.00
42633;BME280;28261;53.304;-6.284;2023-06-24T04:56:21;101353.03;;;19.07;100.00
42633;BME280;28261;53.304;-6.284;2023-06-24T04:58:24;101359.22;;;19.07;100.00
42633;BME280;28261;53.304;-6.284;2023-06-24T05:00:28;101360.06;;;19.08;100.00
42633;BME280;28261;53.304;-6.284;2023-06-24T05:02:31;101368.13;;;19.08;100.00
42633;BME280;28261;53.304;-6.284;2023-06-24T05:04:35;101361.78;;;19.09;100.00
42633;BME280;28261;53.304;-6.284;2023-06-24T05:06:40;101369.84;;;19.09;100.00
42633;BME280;28261;53.304;-6.284;2023-06-24T05:08:43;101368.84;;;19.10;100.00
42633;BME280;28261;53.304;-6.284;2023-06-24T05:10:46;101372.09;;;19.14;100.00
42633;BME280;28261;53.304;-6.284;2023-06-24T05:12:50;101370.13;;;19.16;100.00
42633;BME280;28261;53.304;-6.284;2023-06-24T05:14:53;101359.38;;;19.16;100.00
42633;BME280;28261;53.304;-6.284;2023-06-24T05:16:57;101361.91;;;19.17;100.00
42633;BME280;28261;53.304;-6.284;2023-06-24T05:19:00;101361.91;;;19.17;99.92
42633;BME280;28261;53.304;-6.284;2023-06-24T05:21:04;101355.69;;;19.17;99.70
42633;BME280;28261;53.304;-6.284;2023-06-24T05:23:08;101358.38;;;19.17;99.58
42633;BME280;28261;53.304;-6.284;2023-06-24T05:25:12;101359.94;;;19.19;99.35
42633;BME280;28261;53.304;-6.284;2023-06-24T05:27:16;101365.84;;;19.23;98.71
42633;BME280;28261;53.304;-6.284;2023-06-24T05:29:20;101365.59;;;19.26;98.36
42633;BME280;28261;53.304;-6.284;2023-06-24T05:31:23;101365.13;;;19.31;97.80
42633;BME280;28261;53.304;-6.284;2023-06-24T05:33:27;101358.19;;;19.38;97.50
42633;BME280;28261;53.304;-6.284;2023-06-24T05:35:30;101360.41;;;19.52;96.97
42633;BME280;28261;53.304;-6.284;2023-06-24T05:37:34;101363.47;;;20.05;95.20
42633;BME280;28261;53.304;-6.284;2023-06-24T05:39:39;101368.34;;;20.65;91.45
42633;BME280;28261;53.304;-6.284;2023-06-24T05:41:42;101364.97;;;20.99;88.45
42633;BME280;28261;53.304;-6.284;2023-06-24T05:43:46;101357.94;;;21.06;87.41
42633;BME280;28261;53.304;-6.284;2023-06-24T05:45:49;101371.59;;;21.05;87.12
42633;BME280;28261;53.304;-6.284;2023-06-24T05:47:53;101371.22;;;21.00;86.69
42633;BME280;28261;53.304;-6.284;2023-06-24T05:49:56;101363.44;;;20.96;86.79
42633;BME280;28261;53.304;-6.284;2023-06-24T05:52:00;101370.47;;;20.89;86.36
42633;BME280;28261;53.304;-6.284;2023-06-24T05:54:03;101367.38;;;20.84;86.65
42633;BME280;28261;53.304;-6.284;2023-06-24T05:56:08;101363.00;;;20.83;86.39
42633;BME280;28261;53.304;-6.284;2023-06-24T05:58:12;101358.63;;;20.82;86.49
42633;BME280;28261;53.304;-6.284;2023-06-24T06:00:17;101358.63;;;20.82;86.45
42633;BME280;28261;53.304;-6.284;2023-06-24T06:02:21;101364.69;;;20.84;86.15
42633;BME280;28261;53.304;-6.284;2023-06-24T06:04:24;101364.53;;;21.04;86.38
42633;BME280;28261;53.304;-6.284;2023-06-24T06:06:28;101357.88;;;22.03;83.15
42633;BME280;28261;53.304;-6.284;2023-06-24T06:08:31;101350.31;;;23.40;76.81
42633;BME280;28261;53.304;-6.284;2023-06-24T06:10:35;101350.06;;;24.69;70.75
42633;BME280;28261;53.304;-6.284;2023-06-24T06:12:40;101349.03;;;25.91;65.21
42633;BME280;28261;53.304;-6.284;2023-06-24T06:14:43;101350.75;;;26.87;61.89
42633;BME280;28261;53.304;-6.284;2023-06-24T06:16:46;101347.19;;;27.72;58.79
42633;BME280;28261;53.304;-6.284;2023-06-24T06:18:50;101344.31;;;28.42;56.18
42633;BME280;28261;53.304;-6.284;2023-06-24T06:20:53;101350.69;;;29.09;54.05
42633;BME280;28261;53.304;-6.284;2023-06-24T06:22:57;101346.38;;;29.74;51.61
42633;BME280;28261;53.304;-6.284;2023-06-24T06:25:01;101340.81;;;30.00;50.16
42633;BME280;28261;53.304;-6.284;2023-06-24T06:27:05;101344.31;;;29.69;50.74
42633;BME280;28261;53.304;-6.284;2023-06-24T06:29:13;101352.38;;;28.97;51.57
42633;BME280;28261;53.304;-6.284;2023-06-24T06:31:17;101343.84;;;28.25;53.14
42633;BME280;28261;53.304;-6.284;2023-06-24T06:33:20;101351.16;;;28.11;53.55
42633;BME280;28261;53.304;-6.284;2023-06-24T06:35:23;101357.66;;;28.10;53.12
42633;BME280;28261;53.304;-6.284;2023-06-24T06:37:27;101355.13;;;27.73;53.20
42633;BME280;28261;53.304;-6.284;2023-06-24T06:39:30;101354.38;;;26.94;54.97
42633;BME280;28261;53.304;-6.284;2023-06-24T06:41:34;101353.94;;;26.11;57.01
42633;BME280;28261;53.304;-6.284;2023-06-24T06:43:37;101369.19;;;25.37;59.40
42633;BME280;28261;53.304;-6.284;2023-06-24T06:45:42;101368.16;;;24.77;60.88
42633;BME280;28261;53.304;-6.284;2023-06-24T06:47:46;101369.28;;;24.28;62.91
42633;BME280;28261;53.304;-6.284;2023-06-24T06:49:49;101371.66;;;23.83;64.36
42633;BME280;28261;53.304;-6.284;2023-06-24T06:51:54;101367.53;;;23.47;65.84
42633;BME280;28261;53.304;-6.284;2023-06-24T06:53:57;101357.91;;;23.28;66.58
42633;BME280;28261;53.304;-6.284;2023-06-24T06:56:01;101363.50;;;23.35;67.03
42633;BME280;28261;53.304;-6.284;2023-06-24T06:58:05;101367.69;;;24.10;65.00
42633;BME280;28261;53.304;-6.284;2023-06-24T07:00:09;101368.44;;;25.20;60.78
42633;BME280;28261;53.304;-6.284;2023-06-24T07:02:14;101368.25;;;25.90;57.99
42633;BME280;28261;53.304;-6.284;2023-06-24T07:04:18;101364.69;;;26.41;56.47
42633;BME280;28261;53.304;-6.284;2023-06-24T07:06:21;101366.69;;;27.18;54.24
42633;BME280;28261;53.304;-6.284;2023-06-24T07:08:24;101362.44;;;28.01;52.00
42633;BME280;28261;53.304;-6.284;2023-06-24T07:10:28;101366.44;;;28.80;49.96
42633;BME280;28261;53.304;-6.284;2023-06-24T07:12:31;101367.03;;;29.56;48.23
42633;BME280;28261;53.304;-6.284;2023-06-24T07:14:35;101368.84;;;30.34;46.46
42633;BME280;28261;53.304;-6.284;2023-06-24T07:16:38;101363.81;;;30.95;44.63
42633;BME280;28261;53.304;-6.284;2023-06-24T07:18:43;101371.16;;;31.27;44.14
42633;BME280;28261;53.304;-6.284;2023-06-24T07:20:46;101365.38;;;31.53;42.73
42633;BME280;28261;53.304;-6.284;2023-06-24T07:22:50;101370.13;;;31.46;41.84
42633;BME280;28261;53.304;-6.284;2023-06-24T07:24:54;101381.00;;;31.53;42.21
42633;BME280;28261;53.304;-6.284;2023-06-24T07:26:58;101375.03;;;31.63;41.76
42633;BME280;28261;53.304;-6.284;2023-06-24T07:29:06;101376.09;;;31.80;41.19
42633;BME280;28261;53.304;-6.284;2023-06-24T07:31:11;101383.75;;;31.53;41.54
42633;BME280;28261;53.304;-6.284;2023-06-24T07:33:14;101373.88;;;31.01;42.43
42633;BME280;28261;53.304;-6.284;2023-06-24T07:35:19;101392.16;;;30.44;43.65
42633;BME280;28261;53.304;-6.284;2023-06-24T07:37:22;101392.41;;;29.90;44.77
42633;BME280;28261;53.304;-6.284;2023-06-24T07:39:26;101392.66;;;29.48;45.25
42633;BME280;28261;53.304;-6.284;2023-06-24T07:41:29;101401.47;;;28.77;45.96
42633;BME280;28261;53.304;-6.284;2023-06-24T07:43:33;101406.91;;;28.08;47.58
42633;BME280;28261;53.304;-6.284;2023-06-24T07:45:36;101407.41;;;27.55;48.97
42633;BME280;28261;53.304;-6.284;2023-06-24T07:47:40;101409.28;;;27.05;50.41
42633;BME280;28261;53.304;-6.284;2023-06-24T07:49:43;101419.50;;;26.59;51.73
42633;BME280;28261;53.304;-6.284;2023-06-24T07:51:48;101423.69;;;26.25;52.09
42633;BME280;28261;53.304;-6.284;2023-06-24T07:53:51;101427.72;;;25.99;53.15
42633;BME280;28261;53.304;-6.284;2023-06-24T07:55:55;101432.31;;;25.84;53.58
42633;BME280;28261;53.304;-6.284;2023-06-24T07:57:58;101439.03;;;25.73;53.53
42633;BME280;28261;53.304;-6.284;2023-06-24T08:00:02;101439.22;;;25.72;54.08
42633;BME280;28261;53.304;-6.284;2023-06-24T08:02:13;101443.66;;;25.73;54.09
42633;BME280;28261;53.304;-6.284;2023-06-24T08:04:17;101448.41;;;26.00;53.08
42633;BME280;28261;53.304;-6.284;2023-06-24T08:06:20;101451.16;;;26.15;52.45
42633;BME280;28261;53.304;-6.284;2023-06-24T08:08:25;101449.56;;;26.06;51.94
42633;BME280;28261;53.304;-6.284;2023-06-24T08:10:28;101442.06;;;25.78;52.66
42633;BME280;28261;53.304;-6.284;2023-06-24T08:12:32;101449.59;;;25.53;53.04
42633;BME280;28261;53.304;-6.284;2023-06-24T08:14:35;101453.13;;;25.39;53.43
42633;BME280;28261;53.304;-6.284;2023-06-24T08:16:39;101452.50;;;25.28;53.93
42633;BME280;28261;53.304;-6.284;2023-06-24T08:18:42;101453.50;;;25.12;54.27
42633;BME280;28261;53.304;-6.284;2023-06-24T08:20:45;101453.69;;;24.79;55.27
42633;BME280;28261;53.304;-6.284;2023-06-24T08:22:51;101442.31;;;24.53;56.04
42633;BME280;28261;53.304;-6.284;2023-06-24T08:24:56;101463.00;;;24.54;56.38
42633;BME280;28261;53.304;-6.284;2023-06-24T08:27:00;101447.53;;;24.62;56.15
42633;BME280;28261;53.304;-6.284;2023-06-24T08:29:03;101437.59;;;24.78;55.68
42633;BME280;28261;53.304;-6.284;2023-06-24T08:31:08;101443.53;;;25.05;54.91
42633;BME280;28261;53.304;-6.284;2023-06-24T08:33:12;101450.13;;;25.33;54.36
42633;BME280;28261;53.304;-6.284;2023-06-24T08:35:15;101454.97;;;25.38;54.17
42633;BME280;28261;53.304;-6.284;2023-06-24T08:37:18;101455.88;;;25.30;54.26
42633;BME280;28261;53.304;-6.284;2023-06-24T08:39:22;101451.88;;;25.03;55.06
42633;BME280;28261;53.304;-6.284;2023-06-24T08:41:27;101454.78;;;24.70;56.42
42633;BME280;28261;53.304;-6.284;2023-06-24T08:43:30;101452.47;;;24.50;57.28
42633;BME280;28261;53.304;-6.284;2023-06-24T08:45:33;101451.88;;;24.40;58.12
42633;BME280;28261;53.304;-6.284;2023-06-24T08:47:37;101461.59;;;24.26;58.64
42633;BME280;28261;53.304;-6.284;2023-06-24T08:49:47;101455.91;;;24.05;59.33
42633;BME280;28261;53.304;-6.284;2023-06-24T08:51:55;101454.22;;;23.87;60.12
42633;BME280;28261;53.304;-6.284;2023-06-24T08:54:02;101454.09;;;23.72;60.23
42633;BME280;28261;53.304;-6.284;2023-06-24T08:56:05;101451.22;;;23.65;60.08
42633;BME280;28261;53.304;-6.284;2023-06-24T08:58:11;101450.88;;;23.60;59.63
42633;BME280;28261;53.304;-6.284;2023-06-24T09:00:15;101451.75;;;23.61;59.50
42633;BME280;28261;53.304;-6.284;2023-06-24T09:02:18;101443.44;;;23.62;59.29
42633;BME280;28261;53.304;-6.284;2023-06-24T09:04:22;101440.56;;;23.56;59.10
42633;BME280;28261;53.304;-6.284;2023-06-24T09:06:26;101448.19;;;23.44;59.44
42633;BME280;28261;53.304;-6.284;2023-06-24T09:08:29;101435.53;;;23.36;59.99
42633;BME280;28261;53.304;-6.284;2023-06-24T09:10:34;101441.25;;;23.33;60.41
42633;BME280;28261;53.304;-6.284;2023-06-24T09:12:37;101440.78;;;23.29;60.54
42633;BME280;28261;53.304;-6.284;2023-06-24T09:14:48;101434.31;;;23.22;60.73
42633;BME280;28261;53.304;-6.284;2023-06-24T09:16:52;101439.91;;;23.12;61.54
42633;BME280;28261;53.304;-6.284;2023-06-24T09:18:56;101437.34;;;23.11;61.75
42633;BME280;28261;53.304;-6.284;2023-06-24T09:20:59;101431.94;;;23.11;62.15
42633;BME280;28261;53.304;-6.284;2023-06-24T09:23:03;101437.34;;;23.11;62.36
42633;BME280;28261;53.304;-6.284;2023-06-24T09:25:07;101437.72;;;23.16;62.28
42633;BME280;28261;53.304;-6.284;2023-06-24T09:27:12;101436.03;;;23.23;62.40
42633;BME280;28261;53.304;-6.284;2023-06-24T09:29:16;101441.78;;;23.20;62.46
42633;BME280;28261;53.304;-6.284;2023-06-24T09:31:21;101431.78;;;23.12;62.88
42633;BME280;28261;53.304;-6.284;2023-06-24T09:33:27;101424.53;;;23.13;62.76
42633;BME280;28261;53.304;-6.284;2023-06-24T09:35:35;101422.50;;;23.15;63.03
42633;BME280;28261;53.304;-6.284;2023-06-24T09:37:39;101419.13;;;23.29;63.01
42633;BME280;28261;53.304;-6.284;2023-06-24T09:39:43;101417.25;;;23.46;62.84
42633;BME280;28261;53.304;-6.284;2023-06-24T09:41:48;101424.50;;;23.62;61.93
42633;BME280;28261;53.304;-6.284;2023-06-24T09:43:52;101432.63;;;23.62;61.46
42633;BME280;28261;53.304;-6.284;2023-06-24T09:46:01;101427.56;;;23.59;61.61
42633;BME280;28261;53.304;-6.284;2023-06-24T09:48:06;101424.31;;;23.64;60.99
42633;BME280;28261;53.304;-6.284;2023-06-24T09:50:10;101420.44;;;23.58;60.12
42633;BME280;28261;53.304;-6.284;2023-06-24T09:52:14;101419.59;;;23.49;60.44
42633;BME280;28261;53.304;-6.284;2023-06-24T09:54:20;101426.22;;;23.55;60.21
42633;BME280;28261;53.304;-6.284;2023-06-24T09:56:25;101416.38;;;23.62;60.19
42633;BME280;28261;53.304;-6.284;2023-06-24T09:58:32;101425.13;;;23.73;59.69
42633;BME280;28261;53.304;-6.284;2023-06-24T10:00:36;101432.22;;;23.82;59.33
42633;BME280;28261;53.304;-6.284;2023-06-24T10:02:41;101430.88;;;23.86;59.20
42633;BME280;28261;53.304;-6.284;2023-06-24T10:04:48;101440.34;;;23.82;59.30
42633;BME280;28261;53.304;-6.284;2023-06-24T10:06:52;101439.34;;;23.75;59.73
42633;BME280;28261;53.304;-6.284;2023-06-24T10:08:56;101441.72;;;23.70;60.13
42633;BME280;28261;53.304;-6.284;2023-06-24T10:11:01;101436.66;;;23.66;60.46
42633;BME280;28261;53.304;-6.284;2023-06-24T10:13:05;101439.84;;;23.70;60.63
42633;BME280;28261;53.304;-6.284;2023-06-24T10:15:10;101434.63;;;23.69;60.93
42633;BME280;28261;53.304;-6.284;2023-06-24T10:17:14;101444.09;;;23.64;61.34
42633;BME280;28261;53.304;-6.284;2023-06-24T10:19:19;101432.78;;;23.69;61.10
42633;BME280;28261;53.304;-6.284;2023-06-24T10:21:44;101435.31;;;23.62;61.04
42633;BME280;28261;53.304;-6.284;2023-06-24T10:23:52;101427.56;;;23.51;61.37
42633;BME280;28261;53.304;-6.284;2023-06-24T10:25:56;101435.53;;;23.44;61.81
42633;BME280;28261;53.304;-6.284;2023-06-24T10:28:00;101433.13;;;23.49;61.75
42633;BME280;28261;53.304;-6.284;2023-06-24T10:30:07;101420.09;;;23.61;61.37
42633;BME280;28261;53.304;-6.284;2023-06-24T10:32:11;101421.78;;;23.71;60.89
42633;BME280;28261;53.304;-6.284;2023-06-24T10:34:24;101425.31;;;23.71;60.51
42633;BME280;28261;53.304;-6.284;2023-06-24T10:36:37;101411.63;;;23.64;60.67
42633;BME280;28261;53.304;-6.284;2023-06-24T10:38:40;101409.28;;;23.61;61.02
42633;BME280;28261;53.304;-6.284;2023-06-24T10:40:44;101412.81;;;23.62;61.28
42633;BME280;28261;53.304;-6.284;2023-06-24T10:42:48;101413.00;;;23.60;61.60
42633;BME280;28261;53.304;-6.284;2023-06-24T10:44:56;101413.50;;;23.64;61.88
42633;BME280;28261;53.304;-6.284;2023-06-24T10:47:00;101422.75;;;23.86;61.54